sensor_id;sensor_type;location;lat;lon;timestamp;pressure;altitude;pressure_sealevel;temperature;humidity
58622;BME280;44389;51.578;5.456;2024-03-02T00:01:53;99665.25;;;8.01;95.72
58622;BME280;44389;51.578;5.456;2024-03-02T00:04:19;99672.09;;;8.00;95.94
58622;BME280;44389;51.578;5.456;2024-03-02T00:06:44;99689.13;;;7.97;97.10
58622;BME280;44389;51.578;5.456;2024-03-02T00:09:10;99698.47;;;7.93;98.71
58622;BME280;44389;51.578;5.456;2024-03-02T00:11:37;99704.38;;;7.90;98.88
58622;BME280;44389;51.578;5.456;2024-03-02T00:14:04;99731.78;;;7.91;100.00
58622;BME280;44389;51.578;5.456;2024-03-02T00:16:30;99763.50;;;7.58;100.00
58622;BME280;44389;51.578;5.456;2024-03-02T00:18:56;99767.66;;;7.20;100.00
58622;BME280;44389;51.578;5.456;2024-03-02T00:21:26;99777.03;;;6.86;100.00
58622;BME280;44389;51.578;5.456;2024-03-02T00:23:52;99778.94;;;6.63;100.00
58622;BME280;44389;51.578;5.456;2024-03-02T00:26:18;99775.91;;;6.46;100.00
58622;BME280;44389;51.578;5.456;2024-03-02T00:28:44;99792.44;;;6.28;100.00
58622;BME280;44389;51.578;5.456;2024-03-02T00:31:13;99788.69;;;6.17;100.00
58622;BME280;44389;51.578;5.456;2024-03-02T00:33:45;99779.94;;;6.08;100.00
58622;BME280;44389;51.578;5.456;2024-03-02T00:36:14;99775.44;;;6.01;100.00
58622;BME280;44389;51.578;5.456;2024-03-02T00:38:50;99769.25;;;5.94;100.00
58622;BME280;44389;51.578;5.456;2024-03-02T00:41:20;99783.56;;;5.89;100.00
58622;BME280;44389;51.578;5.456;2024-03-02T00:43:58;99786.91;;;5.87;100.00
58622;BME280;44389;51.578;5.456;2024-03-02T00:46:24;99782.50;;;5.83;100.00
58622;BME280;44389;51.578;5.456;2024-03-02T00:48:57;99791.81;;;5.81;100.00
58622;BME280;44389;51.578;5.456;2024-03-02T00:51:24;99792.59;;;5.78;100.00
58622;BME280;44389;51.578;5.456;2024-03-02T00:53:51;99797.66;;;5.76;100.00
58622;BME280;44389;51.578;5.456;2024-03-02T00:56:17;99790.75;;;5.74;100.00
58622;BME280;44389;51.578;5.456;2024-03-02T00:58:43;99789.81;;;5.72;100.00
58622;BME280;44389;51.578;5.456;2024-03-02T01:01:08;99791.47;;;5.70;100.00
58622;BME280;44389;51.578;5.456;2024-03-02T01:03:34;99785.41;;;5.66;100.00
58622;BME280;44389;51.578;5.456;2024-03-02T01:06:00;99777.78;;;5.68;100.00
58622;BME280;44389;51.578;5.456;2024-03-02T01:08:25;99792.22;;;5.66;100.00
58622;BME280;44389;51.578;5.456;2024-03-02T01:10:51;99797.25;;;5.64;100.00
58622;BME280;44389;51.578;5.456;2024-03-02T01:13:17;99801.50;;;5.64;100.00
58622;BME280;44389;51.578;5.456;2024-03-02T01:15:42;99802.34;;;5.64;100.00
58622;BME280;44389;51.578;5.456;2024-03-02T01:18:07;99786.22;;;5.65;100.00
58622;BME280;44389;51.578;5.456;2024-03-02T01:20:33;99789.66;;;5.66;100.00
58622;BME280;44389;51.578;5.456;2024-03-02T01:22:58;99796.47;;;5.67;100.00
58622;BME280;44389;51.578;5.456;2024-03-02T01:25:23;99789.75;;;5.69;100.00
58622;BME280;44389;51.578;5.456;2024-03-02T01:27:49;99795.81;;;5.72;100.00
58622;BME280;44389;51.578;5.456;2024-03-02T01:30:14;99794.16;;;5.74;100.00
58622;BME280;44389;51.578;5.456;2024-03-02T01:32:39;99800.22;;;5.76;100.00
58622;BME280;44389;51.578;5.456;2024-03-02T01:35:05;99793.41;;;5.77;100.00
58622;BME280;44389;51.578;5.456;2024-03-02T01:37:30;99792.63;;;5.80;100.00
58622;BME280;44389;51.578;5.456;2024-03-02T01:39:56;99795.19;;;5.80;100.00
58622;BME280;44389;51.578;5.456;2024-03-02T01:42:21;99796.13;;;5.82;100.00
58622;BME280;44389;51.578;5.456;2024-03-02T01:44:47;99797.84;;;5.83;100.00
58622;BME280;44389;51.578;5.456;2024-03-02T01:47:12;99804.81;;;5.87;100.00
58622;BME280;44389;51.578;5.456;2024-03-02T01:49:37;99802.19;;;5.85;100.00
58622;BME280;44389;51.578;5.456;2024-03-02T01:52:04;99803.09;;;5.87;100.00
58622;BME280;44389;51.578;5.456;2024-03-02T01:54:29;99790.31;;;5.87;100.00
58622;BME280;44389;51.578;5.456;2024-03-02T01:56:55;99804.03;;;5.89;100.00
58622;BME280;44389;51.578;5.456;2024-03-02T01:59:20;99802.31;;;5.90;100.00
58622;BME280;44389;51.578;5.456;2024-03-02T02:01:45;99804.84;;;5.88;100.00
58622;BME280;44389;51.578;5.456;2024-03-02T02:04:10;99803.09;;;5.87;100.00
58622;BME280;44389;51.578;5.456;2024-03-02T02:06:36;99815.88;;;5.87;100.00
58622;BME280;44389;51.578;5.456;2024-03-02T02:09:01;99798.81;;;5.86;100.00
58622;BME280;44389;51.578;5.456;2024-03-02T02:11:27;99798.72;;;5.83;100.00
58622;BME280;44389;51.578;5.456;2024-03-02T02:13:52;99794.41;;;5.82;100.00
58622;BME280;44389;51.578;5.456;2024-03-02T02:16:20;99792.59;;;5.78;100.00
58622;BME280;44389;51.578;5.456;2024-03-02T02:18:45;99805.38;;;5.78;100.00
58622;BME280;44389;51.578;5.456;2024-03-02T02:21:11;99795.94;;;5.77;100.00
58622;BME280;44389;51.578;5.456;2024-03-02T02:23:36;99798.44;;;5.74;100.00
58622;BME280;44389;51.578;5.456;2024-03-02T02:26:02;99790.72;;;5.72;100.00
58622;BME280;44389;51.578;5.456;2024-03-02T02:28:28;99800.06;;;5.72;100.00
58622;BME280;44389;51.578;5.456;2024-03-02T02:30:54;99796.59;;;5.70;100.00
58622;BME280;44389;51.578;5.456;2024-03-02T02:33:21;99798.22;;;5.68;100.00
58622;BME280;44389;51.578;5.456;2024-03-02T02:35:46;99795.56;;;5.65;100.00
58622;BME280;44389;51.578;5.456;2024-03-02T02:38:11;99792.13;;;5.64;100.00
58622;BME280;44389;51.578;5.456;2024-03-02T02:40:37;99789.56;;;5.64;100.00
58622;BME280;44389;51.578;5.456;2024-03-02T02:43:02;99793.03;;;5.65;100.00
58622;BME280;44389;51.578;5.456;2024-03-02T02:45:27;99792.91;;;5.61;100.00
58622;BME280;44389;51.578;5.456;2024-03-02T02:47:53;99789.44;;;5.59;100.00
58622;BME280;44389;51.578;5.456;2024-03-02T02:50:18;99780.03;;;5.58;100.00
58622;BME280;44389;51.578;5.456;2024-03-02T02:52:43;99783.34;;;5.56;100.00
58622;BME280;44389;51.578;5.456;2024-03-02T02:55:10;99797.84;;;5.55;100.00
58622;BME280;44389;51.578;5.456;2024-03-02T02:57:37;99811.44;;;5.54;100.00
58622;BME280;44389;51.578;5.456;2024-03-02T03:00:14;99804.00;;;5.62;100.00
58622;BME280;44389;51.578;5.456;2024-03-02T03:02:44;99793.53;;;5.54;100.00
58622;BME280;44389;51.578;5.456;2024-03-02T03:05:11;99797.75;;;5.54;100.00
58622;BME280;44389;51.578;5.456;2024-03-02T03:07:38;99797.72;;;5.52;100.00
58622;BME280;44389;51.578;5.456;2024-03-02T03:10:05;99799.47;;;5.53;100.00
58622;BME280;44389;51.578;5.456;2024-03-02T03:12:32;99798.66;;;5.54;100.00
58622;BME280;44389;51.578;5.456;2024-03-02T03:14:57;99812.28;;;5.55;100.00
58622;BME280;44389;51.578;5.456;2024-03-02T03:17:23;99808.06;;;5.55;100.00
58622;BME280;44389;51.578;5.456;2024-03-02T03:19:49;99803.75;;;5.54;100.00
58622;BME280;44389;51.578;5.456;2024-03-02T03:22:14;99812.28;;;5.55;100.00
58622;BME280;44389;51.578;5.456;2024-03-02T03:24:39;99811.47;;;5.56;100.00
58622;BME280;44389;51.578;5.456;2024-03-02T03:27:05;99814.03;;;5.56;100.00
58622;BME280;44389;51.578;5.456;2024-03-02T03:29:30;99812.34;;;5.56;100.00
58622;BME280;44389;51.578;5.456;2024-03-02T03:31:55;99813.22;;;5.57;100.00
58622;BME280;44389;51.578;5.456;2024-03-02T03:34:20;99802.94;;;5.55;100.00
58622;BME280;44389;51.578;5.456;2024-03-02T03:36:46;99817.44;;;5.56;100.00
58622;BME280;44389;51.578;5.456;2024-03-02T03:39:11;99808.91;;;5.56;100.00
58622;BME280;44389;51.578;5.456;2024-03-02T03:41:36;99807.28;;;5.58;100.00
58622;BME280;44389;51.578;5.456;2024-03-02T03:44:02;99821.88;;;5.60;100.00
58622;BME280;44389;51.578;5.456;2024-03-02T03:46:28;99825.31;;;5.63;100.00
58622;BME280;44389;51.578;5.456;2024-03-02T03:48:54;99817.69;;;5.64;100.00
58622;BME280;44389;51.578;5.456;2024-03-02T03:51:21;99825.38;;;5.64;100.00
58622;BME280;44389;51.578;5.456;2024-03-02T03:53:47;99824.56;;;5.65;100.00
58622;BME280;44389;51.578;5.456;2024-03-02T03:56:12;99820.38;;;5.67;100.00
58622;BME280;44389;51.578;5.456;2024-03-02T03:58:38;99817.91;;;5.70;100.00
58622;BME280;44389;51.578;5.456;2024-03-02T04:01:03;99822.25;;;5.73;100.00
58622;BME280;44389;51.578;5.456;2024-03-02T04:03:29;99824.00;;;5.74;100.00
58622;BME280;44389;51.578;5.456;2024-03-02T04:05:54;99841.06;;;5.75;100.00
58622;BME280;44389;51.578;5.456;2024-03-02T04:08:19;99838.41;;;5.72;100.00
58622;BME280;44389;51.578;5.456;2024-03-02T04:10:44;99831.66;;;5.74;100.00
58622;BME280;44389;51.578;5.456;2024-03-02T04:13:10;99831.66;;;5.74;100.00
58622;BME280;44389;51.578;5.456;2024-03-02T04:15:35;99834.22;;;5.74;100.00
58622;BME280;44389;51.578;5.456;2024-03-02T04:18:00;99829.09;;;5.74;100.00
58622;BME280;44389;51.578;5.456;2024-03-02T04:20:25;99828.09;;;5.69;100.00
58622;BME280;44389;51.578;5.456;2024-03-02T04:22:51;99840.66;;;5.63;100.00
58622;BME280;44389;51.578;5.456;2024-03-02T04:25:16;99834.53;;;5.57;100.00
58622;BME280;44389;51.578;5.456;2024-03-02T04:27:41;99829.31;;;5.54;100.00
58622;BME280;44389;51.578;5.456;2024-03-02T04:30:07;99830.81;;;5.48;100.00
58622;BME280;44389;51.578;5.456;2024-03-02T04:32:32;99834.16;;;5.47;100.00
58622;BME280;44389;51.578;5.456;2024-03-02T04:34:57;99838.41;;;5.46;100.00
58622;BME280;44389;51.578;5.456;2024-03-02T04:37:23;99837.50;;;5.44;100.00
58622;BME280;44389;51.578;5.456;2024-03-02T04:39:48;99838.31;;;5.43;100.00
58622;BME280;44389;51.578;5.456;2024-03-02T04:42:13;99835.78;;;5.44;100.00
58622;BME280;44389;51.578;5.456;2024-03-02T04:44:39;99837.59;;;5.47;100.00
58622;BME280;44389;51.578;5.456;2024-03-02T04:47:04;99844.47;;;5.50;100.00
58622;BME280;44389;51.578;5.456;2024-03-02T04:49:30;99841.97;;;5.51;100.00
58622;BME280;44389;51.578;5.456;2024-03-02T04:51:56;99843.78;;;5.54;100.00
58622;BME280;44389;51.578;5.456;2024-03-02T04:54:22;99848.88;;;5.54;100.00
58622;BME280;44389;51.578;5.456;2024-03-02T04:56:47;99854.06;;;5.55;100.00
58622;BME280;44389;51.578;5.456;2024-03-02T04:59:18;99853.31;;;5.58;100.00
58622;BME280;44389;51.578;5.456;2024-03-02T05:01:44;99853.31;;;5.58;100.00
58622;BME280;44389;51.578;5.456;2024-03-02T05:04:10;99855.91;;;5.59;100.00
58622;BME280;44389;51.578;5.456;2024-03-02T05:06:39;99856.75;;;5.60;100.00
58622;BME280;44389;51.578;5.456;2024-03-02T05:09:06;99854.19;;;5.60;100.00
58622;BME280;44389;51.578;5.456;2024-03-02T05:11:31;99849.97;;;5.60;100.00
58622;BME280;44389;51.578;5.456;2024-03-02T05:14:03;99851.66;;;5.60;100.00
58622;BME280;44389;51.578;5.456;2024-03-02T05:16:28;99854.94;;;5.56;100.00
58622;BME280;44389;51.578;5.456;2024-03-02T05:18:54;99854.84;;;5.53;100.00
58622;BME280;44389;51.578;5.456;2024-03-02T05:21:19;99858.28;;;5.55;100.00
58622;BME280;44389;51.578;5.456;2024-03-02T05:23:44;99859.81;;;5.50;100.00
58622;BME280;44389;51.578;5.456;2024-03-02T05:26:10;99859.56;;;5.42;100.00
58622;BME280;44389;51.578;5.456;2024-03-02T05:28:38;99868.75;;;5.37;100.00
58622;BME280;44389;51.578;5.456;2024-03-02T05:31:03;99867.84;;;5.35;100.00
58622;BME280;44389;51.578;5.456;2024-03-02T05:33:28;99868.78;;;5.38;100.00
58622;BME280;44389;51.578;5.456;2024-03-02T05:35:56;99870.50;;;5.38;100.00
58622;BME280;44389;51.578;5.456;2024-03-02T05:38:21;99870.53;;;5.39;100.00
58622;BME280;44389;51.578;5.456;2024-03-02T05:40:47;99879.97;;;5.40;100.00
58622;BME280;44389;51.578;5.456;2024-03-02T05:43:12;99884.41;;;5.46;100.00
58622;BME280;44389;51.578;5.456;2024-03-02T05:45:37;99881.03;;;5.47;100.00
58622;BME280;44389;51.578;5.456;2024-03-02T05:48:03;99883.72;;;5.50;100.00
58622;BME280;44389;51.578;5.456;2024-03-02T05:50:28;99892.22;;;5.51;100.00
58622;BME280;44389;51.578;5.456;2024-03-02T05:52:53;99889.72;;;5.52;100.00
58622;BME280;44389;51.578;5.456;2024-03-02T05:55:19;99896.69;;;5.56;100.00
58622;BME280;44389;51.578;5.456;2024-03-02T05:57:44;99889.09;;;5.58;100.00
58622;BME280;44389;51.578;5.456;2024-03-02T06:00:10;99898.53;;;5.60;100.00
58622;BME280;44389;51.578;5.456;2024-03-02T06:02:39;99894.25;;;5.59;100.00
58622;BME280;44389;51.578;5.456;2024-03-02T06:05:04;99889.94;;;5.58;100.00
58622;BME280;44389;51.578;5.456;2024-03-02T06:07:30;99886.38;;;5.53;100.00
58622;BME280;44389;51.578;5.456;2024-03-02T06:09:55;99891.47;;;5.53;100.00
58622;BME280;44389;51.578;5.456;2024-03-02T06:12:20;99891.47;;;5.53;100.00
58622;BME280;44389;51.578;5.456;2024-03-02T06:14:46;99901.69;;;5.53;100.00
58622;BME280;44389;51.578;5.456;2024-03-02T06:17:11;99903.50;;;5.56;100.00
58622;BME280;44389;51.578;5.456;2024-03-02T06:19:36;99905.19;;;5.55;100.00
58622;BME280;44389;51.578;5.456;2024-03-02T06:22:01;99901.69;;;5.53;100.00
58622;BME280;44389;51.578;5.456;2024-03-02T06:24:27;99900.72;;;5.50;100.00
58622;BME280;44389;51.578;5.456;2024-03-02T06:26:52;99908.34;;;5.48;100.00
58622;BME280;44389;51.578;5.456;2024-03-02T06:29:17;99904.78;;;5.44;100.00
58622;BME280;44389;51.578;5.456;2024-03-02T06:31:42;99899.53;;;5.40;100.00
58622;BME280;44389;51.578;5.456;2024-03-02T06:34:08;99913.00;;;5.36;100.00
58622;BME280;44389;51.578;5.456;2024-03-02T06:36:34;99909.53;;;5.34;100.00
58622;BME280;44389;51.578;5.456;2024-03-02T06:38:59;99907.69;;;5.30;100.00
58622;BME280;44389;51.578;5.456;2024-03-02T06:41:25;99906.81;;;5.29;100.00
58622;BME280;44389;51.578;5.456;2024-03-02T06:43:51;99910.97;;;5.25;100.00
58622;BME280;44389;51.578;5.456;2024-03-02T06:46:24;99913.38;;;5.22;100.00
58622;BME280;44389;51.578;5.456;2024-03-02T06:48:49;99921.06;;;5.22;100.00
58622;BME280;44389;51.578;5.456;2024-03-02T06:51:15;99922.78;;;5.23;100.00
58622;BME280;44389;51.578;5.456;2024-03-02T06:53:41;99930.50;;;5.25;100.00
58622;BME280;44389;51.578;5.456;2024-03-02T06:56:07;99935.66;;;5.26;100.00
58622;BME280;44389;51.578;5.456;2024-03-02T06:58:33;99935.81;;;5.30;100.00
58622;BME280;44389;51.578;5.456;2024-03-02T07:00:58;99929.94;;;5.32;100.00
58622;BME280;44389;51.578;5.456;2024-03-02T07:03:25;99942.03;;;5.38;100.00
58622;BME280;44389;51.578;5.456;2024-03-02T07:05:51;99939.59;;;5.41;100.00
58622;BME280;44389;51.578;5.456;2024-03-02T07:08:16;99950.75;;;5.43;100.00
58622;BME280;44389;51.578;5.456;2024-03-02T07:10:41;99948.19;;;5.43;100.00
58622;BME280;44389;51.578;5.456;2024-03-02T07:13:07;99944.00;;;5.45;100.00
58622;BME280;44389;51.578;5.456;2024-03-02T07:15:32;99936.44;;;5.48;100.00
58622;BME280;44389;51.578;5.456;2024-03-02T07:18:16;99947.66;;;5.52;100.00
58622;BME280;44389;51.578;5.456;2024-03-02T07:20:41;99957.13;;;5.54;100.00
58622;BME280;44389;51.578;5.456;2024-03-02T07:23:06;99954.66;;;5.57;100.00
58622;BME280;44389;51.578;5.456;2024-03-02T07:25:32;99959.06;;;5.61;100.00
58622;BME280;44389;51.578;5.456;2024-03-02T07:27:57;99948.16;;;5.66;100.00
58622;BME280;44389;51.578;5.456;2024-03-02T07:30:22;99955.09;;;5.70;100.00
58622;BME280;44389;51.578;5.456;2024-03-02T07:32:50;99958.56;;;5.72;100.00
58622;BME280;44389;51.578;5.456;2024-03-02T07:35:15;99956.09;;;5.73;100.00
58622;BME280;44389;51.578;5.456;2024-03-02T07:37:41;99959.53;;;5.75;100.00
58622;BME280;44389;51.578;5.456;2024-03-02T07:40:07;99953.56;;;5.75;100.00
58622;BME280;44389;51.578;5.456;2024-03-02T07:42:40;99962.16;;;5.77;100.00
58622;BME280;44389;51.578;5.456;2024-03-02T07:45:06;99955.19;;;5.73;100.00
58622;BME280;44389;51.578;5.456;2024-03-02T07:47:33;99960.31;;;5.73;100.00
58622;BME280;44389;51.578;5.456;2024-03-02T07:49:58;99962.00;;;5.72;100.00
58622;BME280;44389;51.578;5.456;2024-03-02T07:52:24;99956.94;;;5.74;100.00
58622;BME280;44389;51.578;5.456;2024-03-02T07:54:49;99959.44;;;5.72;100.00
58622;BME280;44389;51.578;5.456;2024-03-02T07:57:14;99954.38;;;5.74;100.00
58622;BME280;44389;51.578;5.456;2024-03-02T07:59:39;99957.78;;;5.74;100.00
58622;BME280;44389;51.578;5.456;2024-03-02T08:02:05;99958.78;;;5.78;100.00
58622;BME280;44389;51.578;5.456;2024-03-02T08:04:31;99958.00;;;5.81;100.00
58622;BME280;44389;51.578;5.456;2024-03-02T08:06:56;99972.63;;;5.85;100.00
58622;BME280;44389;51.578;5.456;2024-03-02T08:09:22;99971.06;;;5.88;100.00
58622;BME280;44389;51.578;5.456;2024-03-02T08:11:47;99961.84;;;5.93;100.00
58622;BME280;44389;51.578;5.456;2024-03-02T08:14:13;99967.28;;;6.01;100.00
58622;BME280;44389;51.578;5.456;2024-03-02T08:16:38;99971.91;;;6.13;100.00
58622;BME280;44389;51.578;5.456;2024-03-02T08:19:03;99968.16;;;6.28;100.00
58622;BME280;44389;51.578;5.456;2024-03-02T08:21:29;99965.97;;;6.40;100.00
58622;BME280;44389;51.578;5.456;2024-03-02T08:23:56;99961.25;;;6.52;100.00
58622;BME280;44389;51.578;5.456;2024-03-02T08:26:22;99968.44;;;6.64;100.00
58622;BME280;44389;51.578;5.456;2024-03-02T08:28:47;99966.28;;;6.77;100.00
58622;BME280;44389;51.578;5.456;2024-03-02T08:31:13;99971.91;;;6.94;100.00
58622;BME280;44389;51.578;5.456;2024-03-02T08:33:38;99966.97;;;7.00;100.00
58622;BME280;44389;51.578;5.456;2024-03-02T08:36:03;99972.53;;;7.15;100.00
58622;BME280;44389;51.578;5.456;2024-03-02T08:38:29;99965.72;;;7.16;100.00
58622;BME280;44389;51.578;5.456;2024-03-02T08:40:55;99970.13;;;7.20;100.00
58622;BME280;44389;51.578;5.456;2024-03-02T08:43:20;99970.41;;;7.31;100.00
58622;BME280;44389;51.578;5.456;2024-03-02T08:45:47;99965.41;;;7.34;100.00
58622;BME280;44389;51.578;5.456;2024-03-02T08:48:13;99969.03;;;7.42;100.00
58622;BME280;44389;51.578;5.456;2024-03-02T08:50:38;99967.63;;;7.53;100.00
58622;BME280;44389;51.578;5.456;2024-03-02T08:53:03;99969.66;;;7.65;100.00
58622;BME280;44389;51.578;5.456;2024-03-02T08:55:29;99965.72;;;7.78;100.00
58622;BME280;44389;51.578;5.456;2024-03-02T08:57:55;99974.41;;;7.83;100.00
58622;BME280;44389;51.578;5.456;2024-03-02T09:00:20;99970.28;;;7.88;100.00
58622;BME280;44389;51.578;5.456;2024-03-02T09:02:46;99974.63;;;7.91;100.00
58622;BME280;44389;51.578;5.456;2024-03-02T09:05:12;99976.44;;;7.95;100.00
58622;BME280;44389;51.578;5.456;2024-03-02T09:07:37;99973.28;;;8.05;100.00
58622;BME280;44389;51.578;5.456;2024-03-02T09:10:04;99969.19;;;8.12;100.00
58622;BME280;44389;51.578;5.456;2024-03-02T09:12:30;99973.41;;;8.10;97.13
58622;BME280;44389;51.578;5.456;2024-03-02T09:14:55;99981.34;;;8.19;98.25
58622;BME280;44389;51.578;5.456;2024-03-02T09:17:20;99977.22;;;8.26;96.34
58622;BME280;44389;51.578;5.456;2024-03-02T09:19:46;99974.84;;;8.34;95.00
58622;BME280;44389;51.578;5.456;2024-03-02T09:22:11;99964.91;;;8.46;95.07
58622;BME280;44389;51.578;5.456;2024-03-02T09:24:36;99971.22;;;8.59;91.03
58622;BME280;44389;51.578;5.456;2024-03-02T09:27:02;99980.69;;;8.62;90.25
58622;BME280;44389;51.578;5.456;2024-03-02T09:29:27;99963.75;;;8.70;87.98
58622;BME280;44389;51.578;5.456;2024-03-02T09:31:53;99973.41;;;8.82;87.76
58622;BME280;44389;51.578;5.456;2024-03-02T09:34:18;99965.16;;;8.95;85.75
58622;BME280;44389;51.578;5.456;2024-03-02T09:36:44;99974.72;;;9.02;83.80
58622;BME280;44389;51.578;5.456;2024-03-02T09:39:09;99971.25;;;8.99;81.68
58622;BME280;44389;51.578;5.456;2024-03-02T09:41:36;99971.44;;;9.08;82.08
58622;BME280;44389;51.578;5.456;2024-03-02T09:44:02;99972.31;;;9.09;80.94
58622;BME280;44389;51.578;5.456;2024-03-02T09:46:28;99977.88;;;9.29;81.50
58622;BME280;44389;51.578;5.456;2024-03-02T09:48:53;99985.25;;;9.54;81.36
58622;BME280;44389;51.578;5.456;2024-03-02T09:51:19;99988.84;;;9.63;77.43
58622;BME280;44389;51.578;5.456;2024-03-02T09:53:45;99981.25;;;9.70;75.78
58622;BME280;44389;51.578;5.456;2024-03-02T09:56:12;99963.28;;;9.72;75.13
58622;BME280;44389;51.578;5.456;2024-03-02T09:58:38;99979.66;;;9.77;76.29
58622;BME280;44389;51.578;5.456;2024-03-02T10:01:06;99978.13;;;9.85;74.27
58622;BME280;44389;51.578;5.456;2024-03-02T10:03:33;99971.28;;;9.87;73.18
58622;BME280;44389;51.578;5.456;2024-03-02T10:06:18;99976.81;;;10.09;73.31
58622;BME280;44389;51.578;5.456;2024-03-02T10:08:44;99967.16;;;10.46;71.32
58622;BME280;44389;51.578;5.456;2024-03-02T10:11:09;99968.34;;;10.65;69.21
58622;BME280;44389;51.578;5.456;2024-03-02T10:13:34;99960.38;;;11.13;68.89
58622;BME280;44389;51.578;5.456;2024-03-02T10:16:11;99967.28;;;11.14;63.68
58622;BME280;44389;51.578;5.456;2024-03-02T10:18:37;99954.13;;;10.94;61.32
58622;BME280;44389;51.578;5.456;2024-03-02T10:21:15;99942.31;;;11.11;63.72
58622;BME280;44389;51.578;5.456;2024-03-02T10:23:40;99950.13;;;11.17;62.76
58622;BME280;44389;51.578;5.456;2024-03-02T10:26:26;99950.41;;;11.41;60.39
58622;BME280;44389;51.578;5.456;2024-03-02T10:28:51;99944.69;;;11.68;61.42
58622;BME280;44389;51.578;5.456;2024-03-02T10:31:24;99945.72;;;11.85;58.27
58622;BME280;44389;51.578;5.456;2024-03-02T10:33:54;99941.50;;;11.94;56.01
58622;BME280;44389;51.578;5.456;2024-03-02T10:36:19;99945.03;;;11.99;54.96
58622;BME280;44389;51.578;5.456;2024-03-02T10:38:45;99940.59;;;11.89;54.72
58622;BME280;44389;51.578;5.456;2024-03-02T10:41:19;99940.75;;;12.04;55.31
58622;BME280;44389;51.578;5.456;2024-03-02T10:43:46;99942.44;;;12.00;53.98
58622;BME280;44389;51.578;5.456;2024-03-02T10:46:15;99939.00;;;11.98;53.48
58622;BME280;44389;51.578;5.456;2024-03-02T10:48:45;99942.56;;;12.10;50.83
58622;BME280;44389;51.578;5.456;2024-03-02T10:51:11;99928.75;;;12.06;50.78
58622;BME280;44389;51.578;5.456;2024-03-02T10:53:37;99934.97;;;12.33;52.46
58622;BME280;44389;51.578;5.456;2024-03-02T10:56:04;99929.72;;;12.21;49.82
58622;BME280;44389;51.578;5.456;2024-03-02T10:58:32;99926.53;;;12.56;50.82
58622;BME280;44389;51.578;5.456;2024-03-02T11:01:03;99935.97;;;12.52;50.84
58622;BME280;44389;51.578;5.456;2024-03-02T11:03:35;99927.38;;;12.51;50.70
58622;BME280;44389;51.578;5.456;2024-03-02T11:06:03;99929.06;;;12.46;51.08
58622;BME280;44389;51.578;5.456;2024-03-02T11:08:33;99926.63;;;12.68;50.68
58622;BME280;44389;51.578;5.456;2024-03-02T11:11:04;99926.88;;;13.24;51.35
58622;BME280;44389;51.578;5.456;2024-03-02T11:13:32;99928.75;;;13.56;49.10
58622;BME280;44389;51.578;5.456;2024-03-02T11:16:12;99927.88;;;13.61;47.84
58622;BME280;44389;51.578;5.456;2024-03-02T11:18:41;99925.34;;;13.81;48.36
58622;BME280;44389;51.578;5.456;2024-03-02T11:21:06;99917.47;;;13.37;47.06
58622;BME280;44389;51.578;5.456;2024-03-02T11:23:33;99931.22;;;13.31;48.68
58622;BME280;44389;51.578;5.456;2024-03-02T11:26:18;99926.00;;;13.20;49.21
58622;BME280;44389;51.578;5.456;2024-03-02T11:28:48;99924.81;;;12.58;48.32
58622;BME280;44389;51.578;5.456;2024-03-02T11:31:13;99916.88;;;12.33;49.91
58622;BME280;44389;51.578;5.456;2024-03-02T11:33:39;99913.25;;;12.11;51.70
58622;BME280;44389;51.578;5.456;2024-03-02T11:36:07;99922.72;;;12.07;52.72
58622;BME280;44389;51.578;5.456;2024-03-02T11:38:33;99917.34;;;11.89;52.17
58622;BME280;44389;51.578;5.456;2024-03-02T11:41:00;99918.59;;;12.31;52.32
58622;BME280;44389;51.578;5.456;2024-03-02T11:43:30;99912.84;;;12.72;52.24
58622;BME280;44389;51.578;5.456;2024-03-02T11:46:00;99922.03;;;12.30;51.80
58622;BME280;44389;51.578;5.456;2024-03-02T11:48:26;99922.69;;;12.04;51.38
58622;BME280;44389;51.578;5.456;2024-03-02T11:50:52;99918.53;;;12.20;51.60
58622;BME280;44389;51.578;5.456;2024-03-02T11:53:18;99911.06;;;12.62;52.13
58622;BME280;44389;51.578;5.456;2024-03-02T11:55:44;99909.56;;;13.07;50.82
58622;BME280;44389;51.578;5.456;2024-03-02T11:58:13;99898.44;;;13.33;49.59
58622;BME280;44389;51.578;5.456;2024-03-02T12:00:39;99897.56;;;13.26;48.07
58622;BME280;44389;51.578;5.456;2024-03-02T12:03:09;99901.00;;;13.24;48.72
58622;BME280;44389;51.578;5.456;2024-03-02T12:05:35;99901.84;;;13.15;49.14
58622;BME280;44389;51.578;5.456;2024-03-02T12:08:02;99895.75;;;13.05;48.29
58622;BME280;44389;51.578;5.456;2024-03-02T12:10:28;99889.69;;;13.00;49.49
58622;BME280;44389;51.578;5.456;2024-03-02T12:13:02;99889.63;;;12.83;50.34
58622;BME280;44389;51.578;5.456;2024-03-02T12:15:29;99888.84;;;12.99;50.43
58622;BME280;44389;51.578;5.456;2024-03-02T12:17:56;99879.50;;;13.37;51.60
58622;BME280;44389;51.578;5.456;2024-03-02T12:20:22;99873.41;;;13.26;50.50
58622;BME280;44389;51.578;5.456;2024-03-02T12:22:52;99864.03;;;13.63;50.41
58622;BME280;44389;51.578;5.456;2024-03-02T12:25:22;99870.91;;;13.37;50.01
58622;BME280;44389;51.578;5.456;2024-03-02T12:27:49;99861.31;;;13.18;51.01
58622;BME280;44389;51.578;5.456;2024-03-02T12:30:18;99850.09;;;13.15;51.60
58622;BME280;44389;51.578;5.456;2024-03-02T12:32:44;99850.13;;;13.20;50.50
58622;BME280;44389;51.578;5.456;2024-03-02T12:35:12;99843.22;;;13.28;49.81
58622;BME280;44389;51.578;5.456;2024-03-02T12:37:44;99837.16;;;13.13;50.50
58622;BME280;44389;51.578;5.456;2024-03-02T12:40:13;99834.56;;;13.16;50.33
58622;BME280;44389;51.578;5.456;2024-03-02T12:42:39;99838.03;;;13.29;50.40
58622;BME280;44389;51.578;5.456;2024-03-02T12:45:06;99832.97;;;13.66;50.54
58622;BME280;44389;51.578;5.456;2024-03-02T12:47:32;99840.75;;;13.74;48.60
58622;BME280;44389;51.578;5.456;2024-03-02T12:49:58;99838.16;;;13.65;48.42
58622;BME280;44389;51.578;5.456;2024-03-02T12:52:24;99845.03;;;13.47;49.12
58622;BME280;44389;51.578;5.456;2024-03-02T12:54:50;99829.50;;;13.55;49.75
58622;BME280;44389;51.578;5.456;2024-03-02T12:57:18;99839.84;;;13.57;50.46